< < Back
Terminal Aerodrome Forecast


Current Version              Previous Versions:   1  2  3  4  5  6  7  8  9  

Terminal Aerodrome Forecast

675
FTUS44 KMOB 171700
TAFMOB
TAF
KMOB 171720Z 1718/1818 09007KT P6SM FEW030 OVC060
     FM180600 06011KT 4SM -SHRA OVC010 PROB30 1807/1813 4SM TSRA BR
      OVC007CB
     FM181300 05015G22KT 4SM BR OVC004=

Latest METAR

500
SAUS80 KWBC 180800
MTRMOB
METAR KMOB 180756Z AUTO 04012KT 5SM -RA BR SCT007 OVC013 16/16 A3009 RMK
AO2 SLP185 P0009 T01560156


USA.gov is the U.S. government's official web portal to all federal, state and local government web resources and services.